sensor_id;sensor_type;location;lat;lon;timestamp;P1;durP1;ratioP1;P2;durP2;ratioP2
84138;SDS011;74250;51.528;6.748;2023-12-20T00:32:04;16.13;;;9.05;;
84138;SDS011;74250;51.528;6.748;2023-12-20T00:34:35;18.45;;;9.13;;
84138;SDS011;74250;51.528;6.748;2023-12-20T00:37:01;15.10;;;7.20;;
84138;SDS011;74250;51.528;6.748;2023-12-20T00:39:26;18.27;;;9.70;;
84138;SDS011;74250;51.528;6.748;2023-12-20T00:41:52;15.60;;;7.65;;
84138;SDS011;74250;51.528;6.748;2023-12-20T00:46:45;17.25;;;6.93;;
84138;SDS011;74250;51.528;6.748;2023-12-20T00:49:11;15.50;;;7.70;;
84138;SDS011;74250;51.528;6.748;2023-12-20T00:51:36;14.57;;;7.60;;
84138;SDS011;74250;51.528;6.748;2023-12-20T00:54:02;12.43;;;7.32;;
84138;SDS011;74250;51.528;6.748;2023-12-20T00:56:28;20.98;;;7.93;;
84138;SDS011;74250;51.528;6.748;2023-12-20T00:58:55;12.77;;;6.85;;
84138;SDS011;74250;51.528;6.748;2023-12-20T01:01:21;14.52;;;6.35;;
84138;SDS011;74250;51.528;6.748;2023-12-20T01:03:46;14.75;;;6.25;;
84138;SDS011;74250;51.528;6.748;2023-12-20T01:06:12;13.27;;;6.13;;
84138;SDS011;74250;51.528;6.748;2023-12-20T01:08:37;17.80;;;7.22;;
84138;SDS011;74250;51.528;6.748;2023-12-20T01:11:06;15.02;;;6.32;;
84138;SDS011;74250;51.528;6.748;2023-12-20T01:13:31;11.70;;;6.00;;
84138;SDS011;74250;51.528;6.748;2023-12-20T01:15:57;15.30;;;5.30;;
84138;SDS011;74250;51.528;6.748;2023-12-20T01:18:22;11.25;;;5.75;;
84138;SDS011;74250;51.528;6.748;2023-12-20T01:20:47;15.77;;;6.68;;
84138;SDS011;74250;51.528;6.748;2023-12-20T01:23:13;11.27;;;6.30;;
84138;SDS011;74250;51.528;6.748;2023-12-20T01:25:39;14.25;;;6.80;;
84138;SDS011;74250;51.528;6.748;2023-12-20T01:28:04;12.43;;;6.65;;
84138;SDS011;74250;51.528;6.748;2023-12-20T01:30:30;19.73;;;6.30;;
84138;SDS011;74250;51.528;6.748;2023-12-20T01:32:57;16.08;;;6.35;;
84138;SDS011;74250;51.528;6.748;2023-12-20T01:35:25;16.85;;;7.38;;
84138;SDS011;74250;51.528;6.748;2023-12-20T01:37:50;12.85;;;6.05;;
84138;SDS011;74250;51.528;6.748;2023-12-20T01:40:15;12.77;;;6.05;;
84138;SDS011;74250;51.528;6.748;2023-12-20T01:42:41;15.65;;;6.18;;
84138;SDS011;74250;51.528;6.748;2023-12-20T01:45:08;10.32;;;5.10;;
84138;SDS011;74250;51.528;6.748;2023-12-20T01:47:35;11.88;;;5.47;;
84138;SDS011;74250;51.528;6.748;2023-12-20T01:50:01;15.35;;;6.07;;
84138;SDS011;74250;51.528;6.748;2023-12-20T01:52:28;15.20;;;6.68;;
84138;SDS011;74250;51.528;6.748;2023-12-20T01:54:54;13.40;;;5.32;;
84138;SDS011;74250;51.528;6.748;2023-12-20T01:57:26;11.60;;;4.45;;
84138;SDS011;74250;51.528;6.748;2023-12-20T01:59:52;13.98;;;5.63;;
84138;SDS011;74250;51.528;6.748;2023-12-20T02:02:18;14.70;;;5.55;;
84138;SDS011;74250;51.528;6.748;2023-12-20T02:04:43;17.60;;;5.88;;
84138;SDS011;74250;51.528;6.748;2023-12-20T02:07:09;14.93;;;5.38;;
84138;SDS011;74250;51.528;6.748;2023-12-20T02:09:35;11.38;;;5.82;;
84138;SDS011;74250;51.528;6.748;2023-12-20T02:12:01;15.43;;;6.20;;
84138;SDS011;74250;51.528;6.748;2023-12-20T02:14:26;12.20;;;6.85;;
84138;SDS011;74250;51.528;6.748;2023-12-20T02:16:52;19.50;;;7.13;;
84138;SDS011;74250;51.528;6.748;2023-12-20T02:19:19;15.88;;;6.88;;
84138;SDS011;74250;51.528;6.748;2023-12-20T02:21:45;17.17;;;8.43;;
84138;SDS011;74250;51.528;6.748;2023-12-20T02:24:11;16.05;;;6.90;;
84138;SDS011;74250;51.528;6.748;2023-12-20T02:26:37;14.88;;;6.40;;
84138;SDS011;74250;51.528;6.748;2023-12-20T02:29:02;20.08;;;7.20;;
84138;SDS011;74250;51.528;6.748;2023-12-20T02:31:29;14.32;;;7.60;;
84138;SDS011;74250;51.528;6.748;2023-12-20T02:33:54;14.20;;;7.10;;
84138;SDS011;74250;51.528;6.748;2023-12-20T02:36:19;12.38;;;6.88;;
84138;SDS011;74250;51.528;6.748;2023-12-20T02:38:45;16.42;;;8.02;;
84138;SDS011;74250;51.528;6.748;2023-12-20T02:41:10;16.58;;;6.68;;
84138;SDS011;74250;51.528;6.748;2023-12-20T02:43:35;14.23;;;6.53;;
84138;SDS011;74250;51.528;6.748;2023-12-20T02:46:01;17.15;;;6.88;;
84138;SDS011;74250;51.528;6.748;2023-12-20T02:48:26;17.13;;;6.90;;
84138;SDS011;74250;51.528;6.748;2023-12-20T02:50:52;16.13;;;7.53;;
84138;SDS011;74250;51.528;6.748;2023-12-20T02:53:17;10.45;;;5.85;;
84138;SDS011;74250;51.528;6.748;2023-12-20T02:55:43;17.27;;;7.28;;
84138;SDS011;74250;51.528;6.748;2023-12-20T02:58:09;11.77;;;5.60;;
84138;SDS011;74250;51.528;6.748;2023-12-20T03:00:35;10.55;;;5.00;;
84138;SDS011;74250;51.528;6.748;2023-12-20T03:03:00;18.13;;;6.93;;
84138;SDS011;74250;51.528;6.748;2023-12-20T03:05:27;10.10;;;5.47;;
84138;SDS011;74250;51.528;6.748;2023-12-20T03:07:52;12.25;;;3.10;;
84138;SDS011;74250;51.528;6.748;2023-12-20T03:10:18;13.02;;;4.63;;
84138;SDS011;74250;51.528;6.748;2023-12-20T03:12:46;14.63;;;3.90;;
84138;SDS011;74250;51.528;6.748;2023-12-20T03:15:12;10.93;;;2.97;;
84138;SDS011;74250;51.528;6.748;2023-12-20T03:17:38;18.67;;;3.85;;
84138;SDS011;74250;51.528;6.748;2023-12-20T03:20:03;8.02;;;2.65;;
84138;SDS011;74250;51.528;6.748;2023-12-20T03:22:29;10.02;;;3.28;;
84138;SDS011;74250;51.528;6.748;2023-12-20T03:24:54;13.45;;;3.20;;
84138;SDS011;74250;51.528;6.748;2023-12-20T03:27:19;12.48;;;1.92;;
84138;SDS011;74250;51.528;6.748;2023-12-20T03:29:45;11.60;;;2.15;;
84138;SDS011;74250;51.528;6.748;2023-12-20T03:32:11;8.80;;;3.92;;
84138;SDS011;74250;51.528;6.748;2023-12-20T03:34:36;9.80;;;3.13;;
84138;SDS011;74250;51.528;6.748;2023-12-20T03:37:01;10.77;;;2.63;;
84138;SDS011;74250;51.528;6.748;2023-12-20T03:39:27;10.57;;;2.10;;
84138;SDS011;74250;51.528;6.748;2023-12-20T03:41:53;19.70;;;3.60;;
84138;SDS011;74250;51.528;6.748;2023-12-20T03:44:18;11.55;;;3.00;;
84138;SDS011;74250;51.528;6.748;2023-12-20T03:46:44;11.77;;;2.88;;
84138;SDS011;74250;51.528;6.748;2023-12-20T03:49:11;10.50;;;2.72;;
84138;SDS011;74250;51.528;6.748;2023-12-20T03:51:37;9.20;;;1.48;;
84138;SDS011;74250;51.528;6.748;2023-12-20T03:54:02;9.88;;;2.70;;
84138;SDS011;74250;51.528;6.748;2023-12-20T03:56:28;13.15;;;2.45;;
84138;SDS011;74250;51.528;6.748;2023-12-20T03:58:53;6.80;;;1.65;;
84138;SDS011;74250;51.528;6.748;2023-12-20T04:01:18;12.52;;;3.67;;
84138;SDS011;74250;51.528;6.748;2023-12-20T04:03:44;13.07;;;1.52;;
84138;SDS011;74250;51.528;6.748;2023-12-20T04:06:09;12.73;;;1.63;;
84138;SDS011;74250;51.528;6.748;2023-12-20T04:08:35;10.70;;;3.42;;
84138;SDS011;74250;51.528;6.748;2023-12-20T04:11:00;9.63;;;2.80;;
84138;SDS011;74250;51.528;6.748;2023-12-20T04:13:26;11.38;;;2.63;;
84138;SDS011;74250;51.528;6.748;2023-12-20T04:15:51;17.55;;;3.67;;
84138;SDS011;74250;51.528;6.748;2023-12-20T04:18:17;9.38;;;3.42;;
84138;SDS011;74250;51.528;6.748;2023-12-20T04:20:42;14.38;;;3.88;;
84138;SDS011;74250;51.528;6.748;2023-12-20T04:23:07;15.75;;;4.00;;
84138;SDS011;74250;51.528;6.748;2023-12-20T04:25:33;16.40;;;3.17;;
84138;SDS011;74250;51.528;6.748;2023-12-20T04:27:58;12.07;;;3.17;;
84138;SDS011;74250;51.528;6.748;2023-12-20T04:30:23;14.32;;;2.63;;
84138;SDS011;74250;51.528;6.748;2023-12-20T04:32:49;13.95;;;2.83;;
84138;SDS011;74250;51.528;6.748;2023-12-20T04:35:14;11.80;;;3.35;;
84138;SDS011;74250;51.528;6.748;2023-12-20T04:37:39;12.10;;;2.40;;
84138;SDS011;74250;51.528;6.748;2023-12-20T04:40:05;10.45;;;5.35;;
84138;SDS011;74250;51.528;6.748;2023-12-20T04:42:31;7.25;;;2.83;;
84138;SDS011;74250;51.528;6.748;2023-12-20T04:44:56;14.68;;;2.53;;
84138;SDS011;74250;51.528;6.748;2023-12-20T04:47:21;11.63;;;2.65;;
84138;SDS011;74250;51.528;6.748;2023-12-20T04:49:47;13.95;;;2.95;;
84138;SDS011;74250;51.528;6.748;2023-12-20T04:52:12;10.15;;;2.60;;
84138;SDS011;74250;51.528;6.748;2023-12-20T04:54:38;11.98;;;4.10;;
84138;SDS011;74250;51.528;6.748;2023-12-20T04:57:03;12.43;;;4.75;;
84138;SDS011;74250;51.528;6.748;2023-12-20T04:59:29;10.60;;;3.67;;
84138;SDS011;74250;51.528;6.748;2023-12-20T05:01:54;9.25;;;2.70;;
84138;SDS011;74250;51.528;6.748;2023-12-20T05:04:19;12.20;;;3.10;;
84138;SDS011;74250;51.528;6.748;2023-12-20T05:06:45;13.15;;;3.70;;
84138;SDS011;74250;51.528;6.748;2023-12-20T05:09:10;10.80;;;3.53;;
84138;SDS011;74250;51.528;6.748;2023-12-20T05:11:36;13.80;;;4.38;;
84138;SDS011;74250;51.528;6.748;2023-12-20T05:14:01;8.43;;;3.58;;
84138;SDS011;74250;51.528;6.748;2023-12-20T05:16:26;13.75;;;3.97;;
84138;SDS011;74250;51.528;6.748;2023-12-20T05:18:52;18.40;;;3.70;;
84138;SDS011;74250;51.528;6.748;2023-12-20T05:21:17;13.63;;;3.13;;
84138;SDS011;74250;51.528;6.748;2023-12-20T05:23:43;13.30;;;3.75;;
84138;SDS011;74250;51.528;6.748;2023-12-20T05:26:08;13.00;;;4.55;;
84138;SDS011;74250;51.528;6.748;2023-12-20T05:28:34;13.27;;;4.50;;
84138;SDS011;74250;51.528;6.748;2023-12-20T05:30:59;10.90;;;3.47;;
84138;SDS011;74250;51.528;6.748;2023-12-20T05:33:25;21.35;;;4.28;;
84138;SDS011;74250;51.528;6.748;2023-12-20T05:35:50;13.82;;;4.53;;
84138;SDS011;74250;51.528;6.748;2023-12-20T05:38:15;12.95;;;4.88;;
84138;SDS011;74250;51.528;6.748;2023-12-20T05:40:41;10.10;;;2.67;;
84138;SDS011;74250;51.528;6.748;2023-12-20T05:43:07;15.20;;;4.10;;
84138;SDS011;74250;51.528;6.748;2023-12-20T05:45:32;12.02;;;3.80;;
84138;SDS011;74250;51.528;6.748;2023-12-20T05:47:57;10.63;;;4.10;;
84138;SDS011;74250;51.528;6.748;2023-12-20T05:50:23;21.20;;;4.68;;
84138;SDS011;74250;51.528;6.748;2023-12-20T05:52:49;12.32;;;4.20;;
84138;SDS011;74250;51.528;6.748;2023-12-20T05:55:15;12.05;;;4.30;;
84138;SDS011;74250;51.528;6.748;2023-12-20T05:57:40;11.80;;;4.75;;
84138;SDS011;74250;51.528;6.748;2023-12-20T06:00:08;13.57;;;4.25;;
84138;SDS011;74250;51.528;6.748;2023-12-20T06:02:34;13.52;;;3.85;;
84138;SDS011;74250;51.528;6.748;2023-12-20T06:05:01;10.98;;;2.75;;
84138;SDS011;74250;51.528;6.748;2023-12-20T06:07:27;14.48;;;3.70;;
84138;SDS011;74250;51.528;6.748;2023-12-20T06:09:53;11.85;;;4.18;;
84138;SDS011;74250;51.528;6.748;2023-12-20T06:12:18;15.23;;;4.43;;
84138;SDS011;74250;51.528;6.748;2023-12-20T06:14:43;14.10;;;4.03;;
84138;SDS011;74250;51.528;6.748;2023-12-20T06:17:09;14.05;;;5.00;;
84138;SDS011;74250;51.528;6.748;2023-12-20T06:19:34;17.20;;;3.70;;
84138;SDS011;74250;51.528;6.748;2023-12-20T06:22:00;15.13;;;4.10;;
84138;SDS011;74250;51.528;6.748;2023-12-20T06:24:26;10.82;;;4.15;;
84138;SDS011;74250;51.528;6.748;2023-12-20T06:26:53;16.30;;;6.63;;
84138;SDS011;74250;51.528;6.748;2023-12-20T06:29:19;11.73;;;4.57;;
84138;SDS011;74250;51.528;6.748;2023-12-20T06:31:45;19.52;;;6.03;;
84138;SDS011;74250;51.528;6.748;2023-12-20T06:34:10;9.23;;;4.07;;
84138;SDS011;74250;51.528;6.748;2023-12-20T06:36:36;15.18;;;3.38;;
84138;SDS011;74250;51.528;6.748;2023-12-20T06:39:01;15.07;;;6.05;;
84138;SDS011;74250;51.528;6.748;2023-12-20T06:41:26;15.13;;;4.68;;
84138;SDS011;74250;51.528;6.748;2023-12-20T06:43:52;12.88;;;4.75;;
84138;SDS011;74250;51.528;6.748;2023-12-20T06:46:18;15.23;;;5.72;;
84138;SDS011;74250;51.528;6.748;2023-12-20T06:48:43;13.70;;;4.30;;
84138;SDS011;74250;51.528;6.748;2023-12-20T06:53:39;12.00;;;3.38;;
84138;SDS011;74250;51.528;6.748;2023-12-20T06:56:05;13.55;;;4.30;;
84138;SDS011;74250;51.528;6.748;2023-12-20T06:58:30;15.57;;;4.60;;
84138;SDS011;74250;51.528;6.748;2023-12-20T07:00:56;12.88;;;4.40;;
84138;SDS011;74250;51.528;6.748;2023-12-20T07:03:21;17.80;;;5.60;;
84138;SDS011;74250;51.528;6.748;2023-12-20T07:05:46;14.93;;;5.55;;
84138;SDS011;74250;51.528;6.748;2023-12-20T07:08:12;21.00;;;5.07;;
84138;SDS011;74250;51.528;6.748;2023-12-20T07:10:39;13.13;;;4.45;;
84138;SDS011;74250;51.528;6.748;2023-12-20T07:13:04;14.13;;;5.00;;
84138;SDS011;74250;51.528;6.748;2023-12-20T07:15:30;17.17;;;4.57;;
84138;SDS011;74250;51.528;6.748;2023-12-20T07:17:55;15.80;;;3.78;;
84138;SDS011;74250;51.528;6.748;2023-12-20T07:20:20;12.07;;;4.03;;
84138;SDS011;74250;51.528;6.748;2023-12-20T07:22:46;11.82;;;4.38;;
84138;SDS011;74250;51.528;6.748;2023-12-20T07:25:11;14.88;;;4.35;;
84138;SDS011;74250;51.528;6.748;2023-12-20T07:27:36;15.57;;;4.55;;
84138;SDS011;74250;51.528;6.748;2023-12-20T07:30:02;10.77;;;4.05;;
84138;SDS011;74250;51.528;6.748;2023-12-20T07:32:27;9.38;;;4.25;;
84138;SDS011;74250;51.528;6.748;2023-12-20T07:34:53;12.02;;;4.25;;
84138;SDS011;74250;51.528;6.748;2023-12-20T07:37:19;9.70;;;3.70;;
84138;SDS011;74250;51.528;6.748;2023-12-20T07:39:45;15.70;;;6.32;;
84138;SDS011;74250;51.528;6.748;2023-12-20T07:42:11;13.32;;;4.70;;
84138;SDS011;74250;51.528;6.748;2023-12-20T07:44:36;15.38;;;4.03;;
84138;SDS011;74250;51.528;6.748;2023-12-20T07:47:02;16.63;;;4.25;;
84138;SDS011;74250;51.528;6.748;2023-12-20T07:49:27;9.90;;;4.28;;
84138;SDS011;74250;51.528;6.748;2023-12-20T07:51:52;18.25;;;4.85;;
84138;SDS011;74250;51.528;6.748;2023-12-20T07:54:18;13.90;;;4.63;;
84138;SDS011;74250;51.528;6.748;2023-12-20T07:56:43;9.57;;;3.97;;
84138;SDS011;74250;51.528;6.748;2023-12-20T07:59:08;11.63;;;4.47;;
84138;SDS011;74250;51.528;6.748;2023-12-20T08:01:34;14.80;;;4.53;;
84138;SDS011;74250;51.528;6.748;2023-12-20T08:03:59;13.63;;;3.90;;
84138;SDS011;74250;51.528;6.748;2023-12-20T08:06:24;11.60;;;4.25;;
84138;SDS011;74250;51.528;6.748;2023-12-20T08:08:50;16.10;;;4.70;;
84138;SDS011;74250;51.528;6.748;2023-12-20T08:11:15;11.50;;;3.70;;
84138;SDS011;74250;51.528;6.748;2023-12-20T08:13:41;13.95;;;4.07;;
84138;SDS011;74250;51.528;6.748;2023-12-20T08:16:06;14.48;;;4.68;;
84138;SDS011;74250;51.528;6.748;2023-12-20T08:18:31;16.25;;;4.70;;
84138;SDS011;74250;51.528;6.748;2023-12-20T08:20:57;13.05;;;4.85;;
84138;SDS011;74250;51.528;6.748;2023-12-20T08:23:22;15.45;;;3.20;;
84138;SDS011;74250;51.528;6.748;2023-12-20T08:25:47;13.27;;;3.60;;
84138;SDS011;74250;51.528;6.748;2023-12-20T08:28:14;24.23;;;4.15;;
84138;SDS011;74250;51.528;6.748;2023-12-20T08:30:39;17.02;;;4.80;;
84138;SDS011;74250;51.528;6.748;2023-12-20T08:33:04;11.77;;;2.95;;
84138;SDS011;74250;51.528;6.748;2023-12-20T08:35:32;16.45;;;4.45;;
84138;SDS011;74250;51.528;6.748;2023-12-20T08:37:58;14.10;;;3.58;;
84138;SDS011;74250;51.528;6.748;2023-12-20T08:40:23;10.88;;;3.72;;
84138;SDS011;74250;51.528;6.748;2023-12-20T08:42:48;13.40;;;4.30;;
84138;SDS011;74250;51.528;6.748;2023-12-20T08:45:14;12.73;;;3.08;;
84138;SDS011;74250;51.528;6.748;2023-12-20T08:47:39;10.93;;;3.80;;
84138;SDS011;74250;51.528;6.748;2023-12-20T08:50:06;9.48;;;4.13;;
84138;SDS011;74250;51.528;6.748;2023-12-20T08:52:32;15.13;;;3.70;;
84138;SDS011;74250;51.528;6.748;2023-12-20T08:54:57;15.55;;;4.22;;
84138;SDS011;74250;51.528;6.748;2023-12-20T08:57:22;14.20;;;3.92;;
84138;SDS011;74250;51.528;6.748;2023-12-20T08:59:51;13.75;;;3.45;;
84138;SDS011;74250;51.528;6.748;2023-12-20T09:02:16;10.77;;;3.58;;
84138;SDS011;74250;51.528;6.748;2023-12-20T09:04:42;15.32;;;4.13;;
84138;SDS011;74250;51.528;6.748;2023-12-20T09:07:20;20.80;;;3.95;;
84138;SDS011;74250;51.528;6.748;2023-12-20T09:09:49;9.38;;;2.78;;
84138;SDS011;74250;51.528;6.748;2023-12-20T09:12:14;13.38;;;3.78;;
84138;SDS011;74250;51.528;6.748;2023-12-20T09:14:40;12.40;;;3.03;;
84138;SDS011;74250;51.528;6.748;2023-12-20T09:17:05;11.38;;;2.38;;
84138;SDS011;74250;51.528;6.748;2023-12-20T09:19:33;11.77;;;3.17;;
84138;SDS011;74250;51.528;6.748;2023-12-20T09:21:58;9.57;;;3.22;;
84138;SDS011;74250;51.528;6.748;2023-12-20T09:24:23;19.58;;;3.70;;
84138;SDS011;74250;51.528;6.748;2023-12-20T09:26:49;14.70;;;4.15;;
84138;SDS011;74250;51.528;6.748;2023-12-20T09:29:14;10.18;;;2.95;;
84138;SDS011;74250;51.528;6.748;2023-12-20T09:31:40;13.50;;;3.30;;
84138;SDS011;74250;51.528;6.748;2023-12-20T09:34:08;15.50;;;3.13;;
84138;SDS011;74250;51.528;6.748;2023-12-20T09:36:34;15.70;;;4.13;;
84138;SDS011;74250;51.528;6.748;2023-12-20T09:39:01;15.82;;;3.67;;
84138;SDS011;74250;51.528;6.748;2023-12-20T09:41:26;9.88;;;2.83;;
84138;SDS011;74250;51.528;6.748;2023-12-20T09:43:53;11.05;;;3.05;;
84138;SDS011;74250;51.528;6.748;2023-12-20T09:46:19;11.48;;;3.33;;
84138;SDS011;74250;51.528;6.748;2023-12-20T09:48:47;10.70;;;3.67;;
84138;SDS011;74250;51.528;6.748;2023-12-20T09:51:13;11.15;;;3.28;;
84138;SDS011;74250;51.528;6.748;2023-12-20T09:53:41;12.52;;;3.85;;
84138;SDS011;74250;51.528;6.748;2023-12-20T09:56:08;9.35;;;4.07;;
84138;SDS011;74250;51.528;6.748;2023-12-20T09:58:35;11.05;;;3.53;;
84138;SDS011;74250;51.528;6.748;2023-12-20T10:01:01;9.15;;;3.08;;
84138;SDS011;74250;51.528;6.748;2023-12-20T10:03:27;16.55;;;2.88;;
84138;SDS011;74250;51.528;6.748;2023-12-20T10:05:54;11.95;;;3.10;;
84138;SDS011;74250;51.528;6.748;2023-12-20T10:08:21;8.35;;;2.63;;
84138;SDS011;74250;51.528;6.748;2023-12-20T10:10:47;9.85;;;3.70;;
84138;SDS011;74250;51.528;6.748;2023-12-20T10:13:13;10.70;;;3.28;;
84138;SDS011;74250;51.528;6.748;2023-12-20T10:15:38;10.50;;;4.32;;
84138;SDS011;74250;51.528;6.748;2023-12-20T10:18:04;10.50;;;4.07;;
84138;SDS011;74250;51.528;6.748;2023-12-20T10:20:30;11.27;;;3.75;;
84138;SDS011;74250;51.528;6.748;2023-12-20T10:22:56;10.57;;;3.30;;
84138;SDS011;74250;51.528;6.748;2023-12-20T10:25:23;10.48;;;3.88;;
84138;SDS011;74250;51.528;6.748;2023-12-20T10:27:49;11.63;;;4.25;;
84138;SDS011;74250;51.528;6.748;2023-12-20T10:30:15;11.57;;;3.40;;
84138;SDS011;74250;51.528;6.748;2023-12-20T10:32:40;11.57;;;3.70;;
84138;SDS011;74250;51.528;6.748;2023-12-20T10:35:06;9.40;;;2.95;;
84138;SDS011;74250;51.528;6.748;2023-12-20T10:37:34;11.75;;;3.47;;
84138;SDS011;74250;51.528;6.748;2023-12-20T10:40:01;12.98;;;3.85;;
84138;SDS011;74250;51.528;6.748;2023-12-20T10:42:28;13.70;;;4.03;;
84138;SDS011;74250;51.528;6.748;2023-12-20T10:44:54;13.32;;;4.60;;
84138;SDS011;74250;51.528;6.748;2023-12-20T10:47:20;14.38;;;3.90;;
84138;SDS011;74250;51.528;6.748;2023-12-20T10:49:45;18.73;;;4.35;;
84138;SDS011;74250;51.528;6.748;2023-12-20T10:52:11;14.35;;;3.95;;
84138;SDS011;74250;51.528;6.748;2023-12-20T10:54:41;11.68;;;3.60;;
84138;SDS011;74250;51.528;6.748;2023-12-20T10:57:07;13.43;;;4.03;;
84138;SDS011;74250;51.528;6.748;2023-12-20T10:59:38;12.27;;;4.10;;
84138;SDS011;74250;51.528;6.748;2023-12-20T11:02:04;15.13;;;6.43;;
84138;SDS011;74250;51.528;6.748;2023-12-20T11:04:38;13.30;;;3.75;;
84138;SDS011;74250;51.528;6.748;2023-12-20T11:07:18;18.75;;;4.55;;
84138;SDS011;74250;51.528;6.748;2023-12-20T11:10:09;13.93;;;4.68;;
84138;SDS011;74250;51.528;6.748;2023-12-20T11:12:38;14.50;;;4.30;;
84138;SDS011;74250;51.528;6.748;2023-12-20T11:15:10;14.32;;;5.15;;
84138;SDS011;74250;51.528;6.748;2023-12-20T11:17:35;15.60;;;3.80;;
84138;SDS011;74250;51.528;6.748;2023-12-20T11:20:06;11.23;;;3.70;;
84138;SDS011;74250;51.528;6.748;2023-12-20T11:22:33;14.38;;;3.03;;
84138;SDS011;74250;51.528;6.748;2023-12-20T11:25:06;15.02;;;4.13;;
84138;SDS011;74250;51.528;6.748;2023-12-20T11:27:33;9.85;;;3.42;;
84138;SDS011;74250;51.528;6.748;2023-12-20T11:30:00;16.33;;;4.32;;
84138;SDS011;74250;51.528;6.748;2023-12-20T11:32:31;13.13;;;4.57;;
84138;SDS011;74250;51.528;6.748;2023-12-20T11:34:57;8.45;;;2.83;;
84138;SDS011;74250;51.528;6.748;2023-12-20T11:37:30;12.35;;;4.68;;
84138;SDS011;74250;51.528;6.748;2023-12-20T11:40:03;13.30;;;4.82;;
84138;SDS011;74250;51.528;6.748;2023-12-20T11:42:37;10.95;;;3.88;;
84138;SDS011;74250;51.528;6.748;2023-12-20T11:45:03;21.73;;;3.95;;
84138;SDS011;74250;51.528;6.748;2023-12-20T11:47:29;10.73;;;4.88;;
84138;SDS011;74250;51.528;6.748;2023-12-20T11:49:56;13.50;;;5.00;;
84138;SDS011;74250;51.528;6.748;2023-12-20T11:52:21;14.50;;;4.93;;
84138;SDS011;74250;51.528;6.748;2023-12-20T11:54:47;18.15;;;7.13;;
84138;SDS011;74250;51.528;6.748;2023-12-20T11:57:13;17.17;;;7.07;;
84138;SDS011;74250;51.528;6.748;2023-12-20T11:59:38;12.20;;;5.20;;
84138;SDS011;74250;51.528;6.748;2023-12-20T12:02:03;14.20;;;5.15;;
84138;SDS011;74250;51.528;6.748;2023-12-20T12:04:29;12.85;;;4.00;;
84138;SDS011;74250;51.528;6.748;2023-12-20T12:06:55;12.82;;;4.35;;
84138;SDS011;74250;51.528;6.748;2023-12-20T12:09:20;12.57;;;4.88;;
84138;SDS011;74250;51.528;6.748;2023-12-20T12:11:45;13.50;;;5.30;;
84138;SDS011;74250;51.528;6.748;2023-12-20T12:14:11;15.02;;;4.93;;
84138;SDS011;74250;51.528;6.748;2023-12-20T12:16:36;8.88;;;3.42;;
84138;SDS011;74250;51.528;6.748;2023-12-20T12:19:01;11.35;;;2.97;;
84138;SDS011;74250;51.528;6.748;2023-12-20T12:21:27;11.88;;;4.15;;
84138;SDS011;74250;51.528;6.748;2023-12-20T12:23:52;12.05;;;4.13;;
84138;SDS011;74250;51.528;6.748;2023-12-20T12:26:18;17.80;;;5.68;;
84138;SDS011;74250;51.528;6.748;2023-12-20T12:28:43;8.43;;;3.78;;
84138;SDS011;74250;51.528;6.748;2023-12-20T12:31:12;15.77;;;4.85;;
84138;SDS011;74250;51.528;6.748;2023-12-20T12:33:40;11.80;;;4.00;;
84138;SDS011;74250;51.528;6.748;2023-12-20T12:36:06;14.80;;;3.38;;
84138;SDS011;74250;51.528;6.748;2023-12-20T12:38:32;10.57;;;4.43;;
84138;SDS011;74250;51.528;6.748;2023-12-20T12:40:59;11.07;;;4.45;;
84138;SDS011;74250;51.528;6.748;2023-12-20T12:43:25;17.00;;;5.45;;
84138;SDS011;74250;51.528;6.748;2023-12-20T12:45:50;11.93;;;4.53;;
84138;SDS011;74250;51.528;6.748;2023-12-20T12:48:15;16.83;;;4.38;;
84138;SDS011;74250;51.528;6.748;2023-12-20T12:50:41;10.27;;;4.53;;
84138;SDS011;74250;51.528;6.748;2023-12-20T12:53:07;15.18;;;5.13;;
84138;SDS011;74250;51.528;6.748;2023-12-20T12:55:32;11.48;;;4.65;;
84138;SDS011;74250;51.528;6.748;2023-12-20T12:57:58;11.65;;;4.85;;
84138;SDS011;74250;51.528;6.748;2023-12-20T13:00:23;12.85;;;5.30;;
84138;SDS011;74250;51.528;6.748;2023-12-20T13:02:49;13.25;;;4.75;;
84138;SDS011;74250;51.528;6.748;2023-12-20T13:05:15;9.35;;;4.05;;
84138;SDS011;74250;51.528;6.748;2023-12-20T13:07:40;10.23;;;3.75;;
84138;SDS011;74250;51.528;6.748;2023-12-20T13:10:06;15.60;;;3.83;;
84138;SDS011;74250;51.528;6.748;2023-12-20T13:12:31;10.77;;;4.10;;
84138;SDS011;74250;51.528;6.748;2023-12-20T13:14:57;12.15;;;4.97;;
84138;SDS011;74250;51.528;6.748;2023-12-20T13:17:22;9.50;;;3.95;;
84138;SDS011;74250;51.528;6.748;2023-12-20T13:19:48;9.45;;;5.00;;
84138;SDS011;74250;51.528;6.748;2023-12-20T13:22:14;10.18;;;5.50;;
84138;SDS011;74250;51.528;6.748;2023-12-20T13:24:40;9.20;;;4.28;;
84138;SDS011;74250;51.528;6.748;2023-12-20T13:27:05;13.93;;;4.85;;
84138;SDS011;74250;51.528;6.748;2023-12-20T13:29:30;11.40;;;4.97;;
84138;SDS011;74250;51.528;6.748;2023-12-20T13:31:56;18.90;;;6.03;;
84138;SDS011;74250;51.528;6.748;2023-12-20T13:34:22;12.70;;;5.97;;
84138;SDS011;74250;51.528;6.748;2023-12-20T13:36:47;13.65;;;5.53;;
84138;SDS011;74250;51.528;6.748;2023-12-20T13:39:15;11.88;;;5.95;;
84138;SDS011;74250;51.528;6.748;2023-12-20T13:41:40;12.32;;;6.20;;
84138;SDS011;74250;51.528;6.748;2023-12-20T13:44:05;14.82;;;6.13;;
84138;SDS011;74250;51.528;6.748;2023-12-20T13:46:30;12.75;;;5.32;;
84138;SDS011;74250;51.528;6.748;2023-12-20T13:48:56;15.13;;;6.03;;
84138;SDS011;74250;51.528;6.748;2023-12-20T13:51:23;12.50;;;6.03;;
84138;SDS011;74250;51.528;6.748;2023-12-20T13:53:48;12.07;;;6.60;;
84138;SDS011;74250;51.528;6.748;2023-12-20T13:56:14;9.90;;;5.63;;
84138;SDS011;74250;51.528;6.748;2023-12-20T13:58:40;12.50;;;6.00;;
84138;SDS011;74250;51.528;6.748;2023-12-20T14:01:06;12.50;;;6.53;;
84138;SDS011;74250;51.528;6.748;2023-12-20T14:03:32;15.35;;;6.22;;
84138;SDS011;74250;51.528;6.748;2023-12-20T14:05:57;9.82;;;6.55;;
84138;SDS011;74250;51.528;6.748;2023-12-20T14:08:24;10.68;;;6.28;;
84138;SDS011;74250;51.528;6.748;2023-12-20T14:10:50;13.15;;;6.05;;
84138;SDS011;74250;51.528;6.748;2023-12-20T14:13:15;17.05;;;7.88;;
84138;SDS011;74250;51.528;6.748;2023-12-20T14:15:40;18.13;;;7.63;;
84138;SDS011;74250;51.528;6.748;2023-12-20T14:18:06;17.17;;;6.90;;
84138;SDS011;74250;51.528;6.748;2023-12-20T14:20:32;17.35;;;7.63;;
84138;SDS011;74250;51.528;6.748;2023-12-20T14:27:50;12.00;;;6.40;;
84138;SDS011;74250;51.528;6.748;2023-12-20T14:30:16;9.55;;;5.80;;
84138;SDS011;74250;51.528;6.748;2023-12-20T14:32:42;12.30;;;6.07;;
84138;SDS011;74250;51.528;6.748;2023-12-20T14:35:07;11.95;;;6.93;;
84138;SDS011;74250;51.528;6.748;2023-12-20T14:37:33;15.73;;;6.22;;
84138;SDS011;74250;51.528;6.748;2023-12-20T14:40:00;13.75;;;6.63;;
84138;SDS011;74250;51.528;6.748;2023-12-20T14:42:25;9.63;;;5.95;;
84138;SDS011;74250;51.528;6.748;2023-12-20T14:44:50;18.15;;;6.32;;
84138;SDS011;74250;51.528;6.748;2023-12-20T14:47:17;15.30;;;5.93;;
84138;SDS011;74250;51.528;6.748;2023-12-20T14:49:42;16.50;;;7.78;;
84138;SDS011;74250;51.528;6.748;2023-12-20T14:52:08;16.00;;;6.10;;
84138;SDS011;74250;51.528;6.748;2023-12-20T14:54:36;20.23;;;8.65;;
84138;SDS011;74250;51.528;6.748;2023-12-20T14:57:01;20.65;;;9.98;;
84138;SDS011;74250;51.528;6.748;2023-12-20T14:59:27;21.00;;;7.43;;
84138;SDS011;74250;51.528;6.748;2023-12-20T15:01:52;16.58;;;6.95;;
84138;SDS011;74250;51.528;6.748;2023-12-20T15:04:18;9.23;;;5.05;;
84138;SDS011;74250;51.528;6.748;2023-12-20T15:06:50;16.35;;;6.20;;
84138;SDS011;74250;51.528;6.748;2023-12-20T15:09:17;13.88;;;4.90;;